createdAt,value
2023-04-13T05:14:57.913Z,6.50
2023-04-13T05:19:59.749Z,6.50
2023-04-13T05:25:01.602Z,6.50
2023-04-13T05:30:05.388Z,6.60
2023-04-13T05:35:07.902Z,6.60
2023-04-13T05:40:15.036Z,6.60
2023-04-13T05:45:17.286Z,6.60
2023-04-13T05:50:19.291Z,6.60
2023-04-13T05:55:21.935Z,6.60
2023-04-13T06:00:24.057Z,6.60
2023-04-13T06:05:26.049Z,6.60
2023-04-13T06:10:28.136Z,6.60
2023-04-13T06:15:30.954Z,6.60
2023-04-13T06:20:33.583Z,6.70
2023-04-13T06:25:35.734Z,6.60
2023-04-13T06:30:38.181Z,6.70
2023-04-13T06:35:41.078Z,6.70
2023-04-13T06:40:42.901Z,6.70
2023-04-13T06:45:44.746Z,6.70
2023-04-13T06:50:46.565Z,6.80
2023-04-13T06:55:48.562Z,6.90
2023-04-13T07:00:50.693Z,6.90
2023-04-13T07:05:52.608Z,7.00
2023-04-13T07:10:55.606Z,7.10
2023-04-13T07:15:57.523Z,7.20
2023-04-13T07:20:59.414Z,7.30
2023-04-13T07:26:01.514Z,7.30
2023-04-13T07:31:05.270Z,7.40
2023-04-13T07:36:07.571Z,7.50
2023-04-13T07:41:09.368Z,7.60
2023-04-13T07:46:12.691Z,7.70
2023-04-13T07:51:18.747Z,7.70
2023-04-13T07:56:22.719Z,7.70
2023-04-13T08:01:24.575Z,7.80
2023-04-13T08:06:27.493Z,7.90
2023-04-13T08:11:29.409Z,8.00
2023-04-13T08:16:34.409Z,8.00
2023-04-13T08:21:38.664Z,8.10
2023-04-13T08:26:40.794Z,8.20
2023-04-13T08:31:42.681Z,8.30
2023-04-13T08:36:47.948Z,8.40
2023-04-13T08:41:50.223Z,8.50
2023-04-13T08:46:52.970Z,8.60
2023-04-13T08:51:59.596Z,8.80
2023-04-13T08:57:02.732Z,8.90
2023-04-13T09:02:07.589Z,9.00
2023-04-13T09:07:13.062Z,9.10
2023-04-13T09:12:15.073Z,9.10
2023-04-13T09:17:30.759Z,9.20
2023-04-13T09:22:35.260Z,9.20
2023-04-13T09:27:37.159Z,9.30
2023-04-13T09:32:39.005Z,9.40
2023-04-13T09:37:43.669Z,9.40
2023-04-13T09:43:03.195Z,9.40
2023-04-13T09:48:06.981Z,9.20
2023-04-13T09:53:12.238Z,9.10
2023-04-13T09:58:19.313Z,9.00
2023-04-13T10:03:22.493Z,9.00
2023-04-13T10:08:36.574Z,9.10
2023-04-13T10:13:59.107Z,9.30
2023-04-13T10:19:03.866Z,9.30
2023-04-13T10:29:14.642Z,9.30
2023-04-13T10:34:25.617Z,9.40
2023-04-13T10:39:29.160Z,9.50
2023-04-13T10:44:47.475Z,9.50
2023-04-13T10:49:52.116Z,9.50
2023-04-13T10:54:54.374Z,9.50
2023-04-13T10:59:59.360Z,9.60
2023-04-13T11:05:02.247Z,9.70
2023-04-13T11:10:05.993Z,10.00
2023-04-13T11:15:08.747Z,10.50
2023-04-13T11:20:11.449Z,10.70
2023-04-13T11:25:13.351Z,11.00
2023-04-13T11:30:15.336Z,11.10
2023-04-13T11:35:18.873Z,11.00
2023-04-13T11:40:27.450Z,11.10
2023-04-13T11:45:30.074Z,11.60
2023-04-13T11:50:32.760Z,12.00
2023-04-13T11:55:50.126Z,12.00
2023-04-13T12:00:59.856Z,11.90
2023-04-13T12:06:05.109Z,12.40
2023-04-13T12:11:36.793Z,13.10
2023-04-13T12:21:39.961Z,13.00
2023-04-13T12:31:49.238Z,14.00
2023-04-13T12:36:51.509Z,14.20
2023-04-13T12:41:53.344Z,14.30
2023-04-13T12:46:55.217Z,14.30
2023-04-13T12:51:57.278Z,14.20
2023-04-13T12:56:59.890Z,14.20
2023-04-13T13:02:01.843Z,14.60
2023-04-13T13:07:04.498Z,14.60
2023-04-13T13:12:06.709Z,15.00
2023-04-13T13:17:08.575Z,15.00
2023-04-13T13:22:10.404Z,15.30
2023-04-13T13:27:48.504Z,15.50
2023-04-13T13:32:34.546Z,15.60
2023-04-13T13:37:38.292Z,16.00
2023-04-13T13:42:51.462Z,16.20
2023-04-13T13:47:54.963Z,16.30
2023-04-13T13:53:03.740Z,16.60
2023-04-13T13:58:06.438Z,16.70
2023-04-13T14:03:08.534Z,16.20
2023-04-13T14:08:10.720Z,15.70
2023-04-13T14:13:12.553Z,15.30
2023-04-13T14:18:14.537Z,15.30
2023-04-13T14:23:17.592Z,15.40
2023-04-13T14:28:19.551Z,15.90
2023-04-13T14:33:22.763Z,16.30
2023-04-13T14:38:24.945Z,16.50
2023-04-13T14:43:26.963Z,16.30
2023-04-13T14:48:29.700Z,16.60
2023-04-13T14:53:31.562Z,17.20
2023-04-13T14:58:33.422Z,17.50
2023-04-13T15:03:35.591Z,17.10
2023-04-13T15:08:37.846Z,17.10
2023-04-13T15:13:39.960Z,17.40
2023-04-13T15:18:41.900Z,17.30
2023-04-13T15:23:43.786Z,17.60
2023-04-13T15:28:46.113Z,17.70
2023-04-13T15:33:57.138Z,18.20
2023-04-13T15:38:59.440Z,18.20
2023-04-13T15:44:02.009Z,18.00
2023-04-13T15:49:03.992Z,18.10
2023-04-13T15:54:06.036Z,18.00
2023-04-13T15:59:07.842Z,18.00
2023-04-13T16:04:10.192Z,18.00
2023-04-13T16:09:12.244Z,18.10
2023-04-13T16:14:14.408Z,18.00
2023-04-13T16:19:18.187Z,17.60
2023-04-13T16:24:21.113Z,17.10
2023-04-13T16:29:24.844Z,16.40
2023-04-13T16:34:28.022Z,15.90
2023-04-13T16:39:30.025Z,15.60
2023-04-13T16:44:31.962Z,15.40
2023-04-13T16:49:34.024Z,15.30
2023-04-13T16:54:36.869Z,15.10
2023-04-13T16:59:38.914Z,14.80
2023-04-13T17:04:41.155Z,14.70
2023-04-13T17:09:43.176Z,14.60
2023-04-13T17:14:46.760Z,14.60
2023-04-13T17:19:52.004Z,14.60
2023-04-13T17:24:54.192Z,14.50
2023-04-13T17:29:57.552Z,14.50
2023-04-13T17:34:59.472Z,14.40
2023-04-13T17:40:01.806Z,14.20
2023-04-13T17:45:04.120Z,14.00
2023-04-13T17:50:06.650Z,13.90
2023-04-13T17:55:09.130Z,13.60
2023-04-13T18:00:11.948Z,13.40
2023-04-13T18:05:15.912Z,13.20
2023-04-13T18:10:17.929Z,12.90
2023-04-13T18:15:19.852Z,12.80
2023-04-13T18:20:22.074Z,12.70
2023-04-13T18:25:23.991Z,12.50
2023-04-13T18:30:25.836Z,12.30
2023-04-13T18:35:27.772Z,12.00
2023-04-13T18:40:29.679Z,11.50
2023-04-13T18:45:31.830Z,10.90
2023-04-13T18:50:34.100Z,10.40
2023-04-13T18:55:36.115Z,10.00
2023-04-13T19:00:37.991Z,9.60
2023-04-13T19:05:39.906Z,9.50
2023-04-13T19:10:41.993Z,9.20
2023-04-13T19:15:43.941Z,9.20
